KLHB/LHB METAR and TAF weather

Enter ICAO airport designator
Station Type Date Time Source
KLHB METAR 2020/07/14 22:55 UTC NOAA

KLHB 142255Z AUTO 15009KT 10SM CLR 38/21 A2986 RMK AO2 T03800211


Station Type Date Time Source
KLHB Decoded METAR 2020/07/14 22:55 UTC NOAA

Hearne, Hearne Municipal Airport, TX, United States (KLHB) 30-52-18N 096-37-20W
Jul 14, 2020 - 06:55 PM EDT / 2020.07.14 2255 UTC
Wind: from the SSE (150 degrees) at 10 MPH (9 KT):0
Visibility: 10 mile(s):0
Sky conditions: clear
Temperature: 100.4 F (38.0 C)
Heat index: 107.8 F (42.1 C):1
Dew Point: 70.0 F (21.1 C)
Relative Humidity: 37%
Pressure (altimeter): 29.86 in. Hg (1011 hPa)
ob: KLHB 142255Z AUTO 15009KT 10SM CLR 38/21 A2986 RMK AO2 T03800211
cycle: 23

Station Type Date Time Source
KLHB TAF UTC NOAA

Error!

Example: see airport list